AirNav   Everest Fuels
 
 449 users online  

KPYP Centre-Piedmont-Cherokee County Regional Airport
Centre, Alabama, USA

GOING TO CENTRE?


FAA INFORMATION EFFECTIVE 05 DECEMBER 2019

Location

FAA Identifier: PYP
Lat/Long: 34-05-23.7000N 085-36-36.3000W
34-05.395000N 085-36.605000W
34.0899167,-85.6100833
(estimated)
Elevation: 594.6 ft. / 181 m (estimated)
Variation: 04W (2010)
From city: 5 miles S of CENTRE, AL
Time zone: UTC -6 (UTC -5 during Daylight Saving Time)
Zip code: 35960

Airport Operations

Airport use: Open to the public
Activation date: 09/2007
Control tower: no
ARTCC: ATLANTA CENTER
FSS: ANNISTON FLIGHT SERVICE STATION
NOTAMs facility: ANB (NOTAM-D service available)
Attendance: UNATNDD
Wind indicator: lighted
Segmented circle: yes
Lights: ACTVT MIRL RY 07/25 - CTAF.
Beacon: white-green (lighted land airport)
Operates sunset to sunrise.

Airport Communications

CTAF: 122.9
  • APCH/DEP SVC PRVDD BY ATLANTA ARTCC ON FREQS 124.5/270.325 (GADSDEN RCAG).

Nearby radio navigation aids

VOR radial/distance  VOR name  Freq  Var
GADr072/24.5GADSDEN VOR/DME112.3002E
RMGr259/24.8ROME VORTAC115.4001E
TDGr033/37.7TALLADEGA VOR/DME108.8002E

 
NDB name  Hdg/Dist  Freq  Var  ID
FORT PAYNE177/26.142604WFTP ..-. - .--.
CARTERSVILLE264/38.730804WEVZ . ...- --..
CARROLLTON327/39.527804WGPQ --. .--. --.-

Airport Services

Fuel available: 100LL
Parking: tiedowns

Runway Information

Runway 7/25

Dimensions: 5500 x 100 ft. / 1676 x 30 m
Surface: asphalt/aggregate friction seal coat, in good condition
Runway edge lights: medium intensity
RUNWAY 7  RUNWAY 25
Latitude: 34-05.189240N34-05.601052N
Longitude: 085-37.089855W085-36.118890W
Elevation: 584.4 ft.594.6 ft.
Traffic pattern: leftleft
Runway heading: 067 magnetic, 063 true247 magnetic, 243 true
Markings: nonprecision, in good conditionnonprecision, in good condition
Touchdown point: yes, no lightsyes, no lights
Obstructions: 65 ft. trees, 2929 ft. from runway, 261 ft. left of centerline, 41:1 slope to clearnone

Airport Ownership and Management from official FAA records

Ownership: Publicly-owned
Owner: CPCCR AIRPORT AUTHORITY
P.O. BOX 466
CENTRE, AL 35960
Phone (256) 927-8008
Manager: DONNIE FREE
P.O. 466
CENTRE, AL 35960
Phone (256) 557-0404

Airport Operational Statistics

Aircraft based on the field: 23
Single engine airplanes: 22
Multi engine airplanes: 1
    
Aircraft operations: avg 44/day *
51% transient general aviation
49% local general aviation
* for 12-month period ending 31 March 2019

Additional Remarks

FOR CD CTC ATLANTA ARTCC AT 770-210-7692.

Instrument Procedures

NOTE: All procedures below are presented as PDF files. If you need a reader for these files, you should download the free Adobe Reader.

NOT FOR NAVIGATION. Please procure official charts for flight.
FAA instrument procedures published for use from 05 December 2019 at 0900Z to 02 January 2020 at 0900Z.

 
IAPs - Instrument Approach Procedures
RNAV (GPS) RWY 07   download (215KB)
RNAV (GPS) RWY 25   download (193KB)
NOTE: Special Take-Off Minimums/Departure Procedures apply   download (189KB)

Other nearby airports with instrument procedures:

4A4 - Polk County Airport - Cornelius Moore Field (23 nm E)
4A9 - Isbell Field Airport (24 nm N)
KGAD - Northeast Alabama Regional Airport (25 nm W)
KRMG - Richard B. Russell Regional Airport - J.H. Towers Field (27 nm NE)
KANB - Anniston Regional Airport (33 nm S)
 
Loc | Ops | Rwys | IFR | FBO | Links
Com | Nav | Svcs | Stats | Notes
Area around KPYP (Centre-Piedmont-Cherokee County Regional Airport)
 
Road maps at: MapQuest Bing Google
 
Aerial photo
WARNING: Photo may not be current or correct
Aerial photo of KPYP (Centre-Piedmont-Cherokee County Regional Airport)
Photo by Harley McGatha
Photo taken 10-Nov-2007
from a PA24-260B Comanche

Do you have a better or more recent aerial photo of Centre-Piedmont-Cherokee County Regional Airport that you would like to share? If so, please send us your photo.

 
Sectional chart

 
Airport distance calculator
Flying to Centre-Piedmont-Cherokee County Regional Airport? Find the distance to fly.

From to KPYP

Sunrise and sunset
Times for 10-Dec-2019
 Local
(UTC-6)
 Zulu
(UTC)
Morning civil twilight06:1112:11
Sunrise06:3812:38
Sunset16:3222:32
Evening civil twilight17:0023:00

Current date and time
Zulu (UTC)  11-Dec-2019 05:41:09
Local (UTC-6)  10-Dec-2019 23:41:09
 
METAR
K4A9 
24nm N 
110515Z AUTO 03004KT 10SM -SN SCT034 SCT047 OVC100 01/M01 A3033 RMK AO2 T00101011
KGAD 
24nm W 
110511Z AUTO 35007KT 10SM -RA BKN012 OVC120 02/01 A3038 RMK AO2 P0000 FZRANO
KRMG 
27nm NE 
110453Z AUTO 32008KT 10SM UP FEW050 BKN090 OVC100 03/01 A3034 RMK AO2 UPB39 SLP273 P0000 T00280006 401500022
KANB 
33nm S 
110453Z AUTO 02007KT 10SM -RA OVC011 03/02 A3034 RMK AO2 RAB06 SLP279 P0000 T00330017
K8A0 
33nm W 
110515Z AUTO 04004KT 7SM RA SCT014 SCT018 OVC060 00/00 A3034 RMK AO2
KPUJ 
35nm E 
110515Z AUTO 34010KT 10SM SCT007 SCT026 OVC070 01/01 A3027 RMK AO2
KCTJ 
36nm SE 
110515Z AUTO 35011KT 10SM BKN011 SCT033 OVC070 02/01 A3031 RMK AO2 T00220005
KVPC 
38nm E 
110501Z AUTO VRB03KT 10SM SCT013 SCT050 OVC085 03/01 A3031 RMK AO2 T00330006
KASN 
38nm SW 
110515Z AUTO 35005KT 10SM DZ SCT011 SCT048 OVC110 03/02 A3035 RMK AO2 LTG DSNT SW T00300020
K9A5 
39nm NE 
110515Z AUTO 02006KT 10SM SCT075 SCT085 OVC110 01/M01 A3035 RMK AO2 T00051007
TAF
KANB 
33nm S 
101743Z 1018/1118 36011KT 6SM -RA BR SCT015 OVC023 TEMPO 1018/1021 35013G18KT 2SM +RA BR OVC012 FM110300 35009KT 5SM -SHRA BR OVC025 FM110900 01007KT P6SM BKN025 OVC060 FM111300 03005KT P6SM SCT100
KASN 
38nm SW 
102115Z 1021/1118 34010G19KT 6SM -RA BR BKN012 OVC035 TEMPO 1021/1024 35013G18KT 5SM -RA BR OVC009 FM110200 35009KT 5SM -SHRA BR OVC025 FM110900 01007KT P6SM BKN025 OVC060 FM111300 03005KT P6SM SCT100
NOTAMs
Click for the latest NOTAMs
NOTAMs are issued by the DoD/FAA and will open in a separate window not controlled by AirNav.

 

 
 

FBO, Fuel Providers, and Aircraft Ground Support

  
 Business Name 
 
 Contact 
 
 Services / Description 
 
Fuel Prices
 
Comments
  
Centre-Piedmont-Cherokee County Regional Airport 256-927-8009
[email]
Airport management, Aviation fuel, Aircraft parking (ramp or tiedown), Hangar leasing / sales, Passenger terminal and lounge, Aircraft maintenance, ...

More info about Centre-Piedmont-Cherokee County Regional Airport
Phillips 66
100LL
SS $4.40 
 Updated 24-Apr-2019
 
   2 read write
SS=Self service
Update Fuel Prices
 

Would you like to see your business listed on this page?

 If your business provides an interesting product or service to pilots, flight crews, aircraft, or users of the Centre-Piedmont-Cherokee County Regional Airport, you should consider listing it here.  To start the listing process, click on the button below
 
Add a business
 

Other Pages about Centre-Piedmont-Cherokee County Regional Airport

Update a link
 
Copyright © AirNav, LLC. All rights reserved. Privacy Policy  Contact